Airfield :
LOGIN :

Register | Disclaimer

   EN    FR    IT 

 










Legend :    VFR   Marginal VFR   IFR   Intensive IFR   Very Intensive IFR
Visi :
Ceiling :
>= 8 km
>= 3000ft
5 to 8 km
1000 to 3000 ft
1500m to 5 km
500 to 1000 ft
800 to 1500m
200 to 500 ft
< 800m
< 200 ft
Symbols :   Thunderstorms  Fog  Heavy snow  Heavy precipitations  Wind > 20 kt
SIGMETs :     Misc.  Thunderstorms  Icing  Turbulence  Mountain Waves  Volcanic Ashes






- Airport Elevation : 443 ft
- IATA code : SQQ


EYSA - Siauliai

CURRENT METAR :
  • 231750Z 23013KT 9999 SCT019 BKN039 BKN047 04/00 Q0993 R14L/29//95 R14R/29//95 WHT NOSIG

EXPIRED METARs :
  • 231720Z 24015KT 9999 SCT020 BKN039 04/01 Q0994 R14L/29//95 R14R/29//95 WHT NOSIG
  • 231650Z 24015KT 9999 BKN020 BKN028 BKN052 04/01 Q0994 R14L/29//95 R14R/29//95 WHT NOSIG
  • 231620Z 24013KT 9999 -SHRA FEW019CB BKN021 OVC052 04/01 Q0994 R14L/29//95 R14R/29//95 WHT NOSIG
  • 231550Z 24014KT 9999 BKN019 BKN022 04/01 Q0994 R14L/29//95 R14R/29//95 WHT NOSIG
  • 231520Z 24015KT 9999 BKN019 04/01 Q0994 R14L/29//95 R14R/29//95 WHT NOSIG

TAF TAF EYSA
Valid from the 23 at 18:00 until the 24 at 03:00 UTC


231705Z 2318/2403 25016KT 8000 SCT010 BKN020
TEMPO 2318/2324 5000 SHRASN SCT005 BKN015CB
TEMPO 2400/2403 3000 SHSNRA BKN005 BKN013CB



MET'MAP, your aeronautical weather chart ! - Copyright ORBIFLY December 2007 - Disclaimer

ORBIFLY MET'MAP TEAM :

Programming & Development : Alexandra Zaïnal
Concept & original design : Baudouin d'Aumeries
Assistance for programming : Marc-Olivier Méhu
Technical & hardware support : Manuel Goepfert

Contact : metmap@orbifly.com




SOURCES & CREDITS :

   NOAA